Marne, MI

11:28 PM EST on December 17, 2014 (GMT -0500)
Tallmadge Township | Change Station
CLOSE
Current Station
Personal Weather Station
Location: Marne, MI
Elevation: 682 ft
Nearby Weather Stations

Elev 682 ft 42.99 °N, 85.81 °W | Updated 2 minutes ago

Overcast
Overcast
28.8 °F
Feels Like 29 °F
N
3.0
Wind Variable Wind from West
Gusts 8.0 mph

Today
High -- | Low -- °F
--% Chance of Precip.
Yesterday
High -- | Low -- °F
Precip. -- in
8:09 AM 5:09 PM
Waning Crescent, 17% visible
Pressure 30.21 in
Visibility 10.0 miles
Clouds Overcast 2300 ft
Windchill 29 °F
Dew Point 23 °F
Humidity 79%
Rainfall 0.00 in
Snow Depth Not available.
UV 0 out of 12
Pollen .10 out of 12
Air Quality Not available.
Flu Activity Not available.
METAR KGRR 180353Z 28009KT 10SM OVC023 M02/M06 A3017 RMK AO2 SLP228 T10171061

More Conditions Fewer Conditions

Pressure 30.21 in
Visibility 10.0 miles
Clouds Overcast 2300 ft
Windchill 29 °F
Dew Point 23 °F
Humidity 79%
Rainfall 0.00 in
Snow Depth Not available.
UV 0 out of 12
Pollen .10 out of 12
Air Quality Not available.
Flu Activity Not available.
METAR KGRR 180353Z 28009KT 10SM OVC023 M02/M06 A3017 RMK AO2 SLP228 T10171061

More Conditions Fewer Conditions

10-Day Weather Forecast

Almanac

Astronomy

Dec. 17, 2014 Rise Set
Actual Time
Civil Twilight
Nautical Twilight
Astronomical Twilight
Moon
Length of Visible Light
Length of Day
Tomorrow will be .
, % of the Moon is Illuminated

Today's Extremes

State Highs State Lows

Community

WunderPhotos

Upload Photos

1,778,880 photos uploaded!

WunderBlogs® & News

Nearby

Air Quality

  Air Quality AQ Index Pollutant
Not available.

Snow Depth

Station Depth Elevation

Earthquake Activity

City Distance Mag. Time & Date
Minimum magnitude displayed is 2.5.

Coastal Water Temperatures

Place Temperature

Nearby Weather Stations